createdAt,value
2018-06-12T00:00:46.266Z,49.90
2018-06-12T00:03:14.965Z,50.10
2018-06-12T00:05:43.468Z,50.10
2018-06-12T00:08:12.253Z,50.10
2018-06-12T00:10:41.424Z,50.20
2018-06-12T00:13:10.270Z,50.40
2018-06-12T00:15:39.199Z,50.40
2018-06-12T00:18:08.619Z,50.50
2018-06-12T00:20:37.394Z,50.60
2018-06-12T00:25:34.167Z,50.90
2018-06-12T00:28:03.370Z,51.00
2018-06-12T00:30:32.148Z,51.30
2018-06-12T00:33:00.658Z,51.30
2018-06-12T00:35:29.631Z,51.40
2018-06-12T00:37:58.549Z,51.50
2018-06-12T00:40:27.580Z,51.80
2018-06-12T00:42:56.719Z,51.90
2018-06-12T00:45:25.151Z,52.10
2018-06-12T00:47:54.218Z,52.30
2018-06-12T00:50:22.575Z,52.50
2018-06-12T00:52:51.149Z,52.60
2018-06-12T00:55:20.602Z,52.70
2018-06-12T01:00:17.359Z,53.00
2018-06-12T01:02:46.054Z,53.30
2018-06-12T01:05:14.653Z,53.30
2018-06-12T01:07:43.030Z,53.60
2018-06-12T01:10:11.794Z,53.70
2018-06-12T01:12:40.252Z,53.90
2018-06-12T01:15:08.936Z,54.00
2018-06-12T01:17:37.674Z,54.00
2018-06-12T01:22:35.198Z,54.50
2018-06-12T01:25:04.059Z,54.60
2018-06-12T01:27:32.985Z,54.70
2018-06-12T01:30:01.514Z,54.90
2018-06-12T01:32:30.868Z,54.90
2018-06-12T01:34:59.316Z,54.90
2018-06-12T01:37:27.815Z,55.10
2018-06-12T01:39:56.313Z,55.10
2018-06-12T01:42:24.995Z,55.20
2018-06-12T01:44:53.541Z,55.20
2018-06-12T01:47:22.432Z,55.30
2018-06-12T01:49:51.522Z,55.40
2018-06-12T01:52:20.060Z,55.70
2018-06-12T01:54:49.087Z,56.00
2018-06-12T01:57:17.454Z,55.90
2018-06-12T02:02:14.573Z,55.50
2018-06-12T02:04:43.147Z,55.20
2018-06-12T02:07:11.614Z,55.20
2018-06-12T02:09:39.944Z,54.80
2018-06-12T02:12:08.256Z,54.40
2018-06-12T02:14:37.021Z,54.50
2018-06-12T02:17:05.650Z,54.00
2018-06-12T02:19:34.281Z,54.00
2018-06-12T02:22:03.114Z,54.00
2018-06-12T02:24:32.068Z,53.80
2018-06-12T02:27:01.288Z,53.80
2018-06-12T02:29:30.070Z,53.90
2018-06-12T02:31:58.333Z,53.90
2018-06-12T02:34:26.914Z,54.20
2018-06-12T02:36:55.362Z,54.20
2018-06-12T02:39:24.175Z,54.60
2018-06-12T02:41:52.709Z,54.70
2018-06-12T02:44:21.490Z,54.90
2018-06-12T02:46:50.144Z,54.60
2018-06-12T02:49:18.830Z,54.60
2018-06-12T02:51:47.164Z,54.50
2018-06-12T02:54:15.580Z,54.30
2018-06-12T02:56:43.927Z,53.90
2018-06-12T02:59:12.384Z,54.10
2018-06-12T03:01:41.426Z,53.70
2018-06-12T03:04:09.798Z,53.40
2018-06-12T03:06:38.137Z,53.60
2018-06-12T03:09:09.552Z,53.70
2018-06-12T03:11:39.194Z,53.70
2018-06-12T03:14:07.788Z,53.50
2018-06-12T03:16:36.846Z,53.80
2018-06-12T03:19:05.526Z,54.00
2018-06-12T03:21:34.461Z,53.90
2018-06-12T03:24:03.212Z,54.00
2018-06-12T03:29:00.278Z,54.20
2018-06-12T03:31:29.530Z,55.40
2018-06-12T03:33:58.638Z,54.30
2018-06-12T03:36:27.362Z,53.10
2018-06-12T03:38:56.286Z,53.10
2018-06-12T03:41:25.251Z,52.80
2018-06-12T03:43:53.835Z,52.90
2018-06-12T03:46:22.213Z,53.40
2018-06-12T03:48:50.343Z,53.30
2018-06-12T03:51:18.869Z,53.10
2018-06-12T03:53:47.404Z,53.30
2018-06-12T03:56:16.302Z,53.50
2018-06-12T03:58:44.800Z,53.70
2018-06-12T04:01:14.115Z,54.40
2018-06-12T04:03:42.835Z,54.00
2018-06-12T04:06:11.791Z,54.30
2018-06-12T04:08:40.105Z,54.50
2018-06-12T04:11:09.080Z,55.50
2018-06-12T04:13:38.394Z,54.80
2018-06-12T04:16:07.054Z,54.50
2018-06-12T04:18:35.615Z,55.00
2018-06-12T04:21:04.285Z,56.80
2018-06-12T04:23:32.748Z,55.50
2018-06-12T04:26:01.711Z,56.80
2018-06-12T04:28:30.652Z,55.00
2018-06-12T04:30:59.396Z,54.90
2018-06-12T04:33:28.185Z,55.10
2018-06-12T04:35:56.504Z,55.40
2018-06-12T04:38:25.148Z,56.40
2018-06-12T04:40:53.785Z,55.00
2018-06-12T04:43:22.474Z,55.00
2018-06-12T04:45:57.565Z,55.00
2018-06-12T04:48:26.557Z,55.00
2018-06-12T04:50:55.751Z,56.20
2018-06-12T04:53:27.447Z,55.90
2018-06-12T04:58:24.409Z,55.60
2018-06-12T05:00:52.691Z,54.90
2018-06-12T05:03:22.090Z,55.30
2018-06-12T05:05:50.346Z,55.70
2018-06-12T05:08:19.297Z,56.70
2018-06-12T05:13:16.602Z,56.50
2018-06-12T05:15:44.737Z,56.50
2018-06-12T05:18:12.953Z,56.80
2018-06-12T05:23:09.431Z,55.80
2018-06-12T05:25:37.666Z,56.20
2018-06-12T05:30:34.468Z,55.30
2018-06-12T05:35:30.796Z,54.80
2018-06-12T05:37:59.045Z,55.10
2018-06-12T05:40:27.346Z,55.10
2018-06-12T05:42:55.610Z,55.10
2018-06-12T05:45:23.982Z,56.70
2018-06-12T05:47:52.182Z,54.50
2018-06-12T05:50:20.436Z,54.70
2018-06-12T05:52:48.629Z,54.60
2018-06-12T05:55:17.037Z,55.00
2018-06-12T05:57:45.218Z,54.90
2018-06-12T06:00:13.718Z,54.60
2018-06-12T06:02:41.862Z,54.90
2018-06-12T06:05:10.131Z,55.00
2018-06-12T06:07:38.275Z,55.10
2018-06-12T06:10:06.496Z,54.70
2018-06-12T06:12:34.638Z,54.70
2018-06-12T06:15:02.965Z,54.80
2018-06-12T06:17:31.154Z,55.20
2018-06-12T06:19:59.281Z,53.90
2018-06-12T06:22:27.522Z,53.00
2018-06-12T06:24:55.712Z,53.20
2018-06-12T06:27:25.182Z,53.40
2018-06-12T06:29:53.387Z,52.90
2018-06-12T06:32:21.641Z,52.50
2018-06-12T06:34:49.842Z,52.10
2018-06-12T06:37:18.115Z,52.20
2018-06-12T06:39:46.280Z,51.90
2018-06-12T06:42:14.539Z,51.80
2018-06-12T06:44:42.926Z,52.40
2018-06-12T06:47:11.024Z,50.80
2018-06-12T06:49:39.236Z,51.10
2018-06-12T06:52:07.863Z,49.90
2018-06-12T06:54:36.762Z,50.60
2018-06-12T06:57:04.815Z,49.90
2018-06-12T06:59:33.083Z,51.10
2018-06-12T07:02:01.302Z,50.20
2018-06-12T07:04:29.523Z,49.60
2018-06-12T07:06:57.802Z,48.70
2018-06-12T07:09:25.980Z,48.90
2018-06-12T07:11:54.141Z,48.60
2018-06-12T07:14:22.283Z,47.70
2018-06-12T07:16:50.605Z,46.90
2018-06-12T07:19:18.731Z,47.10
2018-06-12T07:21:46.893Z,46.50
2018-06-12T07:24:15.068Z,47.30
2018-06-12T07:26:43.386Z,47.50
2018-06-12T07:29:11.574Z,47.80
2018-06-12T07:31:39.855Z,47.40
2018-06-12T07:34:08.125Z,48.10
2018-06-12T07:36:36.368Z,47.60
2018-06-12T07:39:07.771Z,47.70
2018-06-12T07:41:35.961Z,46.30
2018-06-12T07:46:32.153Z,45.90
2018-06-12T07:49:00.702Z,44.60
2018-06-12T07:51:28.850Z,45.10
2018-06-12T07:53:56.998Z,45.40
2018-06-12T07:56:25.258Z,44.60
2018-06-12T07:58:53.416Z,45.00
2018-06-12T08:01:21.628Z,43.60
2018-06-12T08:03:49.978Z,44.00
2018-06-12T08:06:18.518Z,44.10
2018-06-12T08:08:46.659Z,45.00
2018-06-12T08:11:15.085Z,44.50
2018-06-12T08:13:43.216Z,44.30
2018-06-12T08:16:11.561Z,45.00
2018-06-12T08:18:39.800Z,43.60
2018-06-12T08:21:08.215Z,43.70
2018-06-12T08:23:36.615Z,43.50
2018-06-12T08:26:04.823Z,44.40
2018-06-12T08:28:33.030Z,43.40
2018-06-12T08:33:29.579Z,43.60
2018-06-12T08:35:57.855Z,43.80
2018-06-12T08:38:26.035Z,43.90
2018-06-12T08:40:54.247Z,44.00
2018-06-12T08:43:22.425Z,44.20
2018-06-12T08:45:50.643Z,44.40
2018-06-12T08:48:18.861Z,44.10
2018-06-12T08:50:47.066Z,44.10
2018-06-12T08:53:15.305Z,43.60
2018-06-12T08:55:43.694Z,44.00
2018-06-12T08:58:11.887Z,44.20
2018-06-12T09:00:40.064Z,44.30
2018-06-12T09:03:08.362Z,44.20
2018-06-12T09:05:36.529Z,44.30
2018-06-12T09:08:04.790Z,44.50
2018-06-12T09:10:33.075Z,44.70
2018-06-12T09:13:01.282Z,44.80
2018-06-12T09:15:29.601Z,45.20
2018-06-12T09:17:57.741Z,45.20
2018-06-12T09:20:26.085Z,45.10
2018-06-12T09:22:54.250Z,45.10
2018-06-12T09:25:22.522Z,45.30
2018-06-12T09:27:50.850Z,45.00
2018-06-12T09:30:19.076Z,44.90
2018-06-12T09:32:47.324Z,44.90
2018-06-12T09:35:15.551Z,44.70
2018-06-12T09:37:43.705Z,45.30
2018-06-12T09:40:11.901Z,44.60
2018-06-12T09:42:40.109Z,45.00
2018-06-12T09:45:08.289Z,44.30
2018-06-12T09:47:36.427Z,44.00
2018-06-12T09:50:04.907Z,44.60
2018-06-12T09:55:01.222Z,43.30
2018-06-12T09:57:29.374Z,43.30
2018-06-12T10:02:25.856Z,43.00
2018-06-12T10:04:54.113Z,42.60
2018-06-12T10:07:22.327Z,42.30
2018-06-12T10:09:51.440Z,42.50
2018-06-12T10:12:19.580Z,42.10
2018-06-12T10:14:47.714Z,41.80
2018-06-12T10:17:15.893Z,41.60
2018-06-12T10:19:44.195Z,41.70
2018-06-12T10:22:12.390Z,41.60
2018-06-12T10:24:40.669Z,42.00
2018-06-12T10:27:08.791Z,41.20
2018-06-12T10:29:37.020Z,41.10
2018-06-12T10:32:05.607Z,40.50
2018-06-12T10:34:33.796Z,40.30
2018-06-12T10:37:02.029Z,40.40
2018-06-12T10:39:30.242Z,40.50
2018-06-12T10:41:58.393Z,40.50
2018-06-12T10:44:26.553Z,41.50
2018-06-12T10:46:54.796Z,40.30
2018-06-12T10:49:22.986Z,39.30
2018-06-12T10:51:51.190Z,39.80
2018-06-12T10:54:19.493Z,39.00
2018-06-12T10:56:47.751Z,38.80
2018-06-12T10:59:15.974Z,38.20
2018-06-12T11:01:44.118Z,38.20
2018-06-12T11:04:12.488Z,37.70
2018-06-12T11:06:40.933Z,37.90
2018-06-12T11:09:09.092Z,38.30
2018-06-12T11:11:37.309Z,38.30
2018-06-12T11:14:05.499Z,37.00
2018-06-12T11:16:33.715Z,37.10
2018-06-12T11:19:01.898Z,37.10
2018-06-12T11:21:30.072Z,36.50
2018-06-12T11:23:58.241Z,36.20
2018-06-12T11:26:26.392Z,35.90
2018-06-12T11:28:55.385Z,35.10
2018-06-12T11:31:23.903Z,34.70
2018-06-12T11:33:52.076Z,35.70
2018-06-12T11:36:20.234Z,35.40
2018-06-12T11:38:48.385Z,35.60
2018-06-12T11:41:16.489Z,35.20
2018-06-12T11:43:44.655Z,34.60
2018-06-12T11:46:12.792Z,34.20
2018-06-12T11:48:41.052Z,33.80
2018-06-12T11:53:37.509Z,34.10
2018-06-12T11:56:05.862Z,34.00
2018-06-12T11:58:34.026Z,33.90
2018-06-12T12:01:02.168Z,34.20
2018-06-12T12:03:30.452Z,33.40
2018-06-12T12:05:58.650Z,33.70
2018-06-12T12:08:26.821Z,34.30
2018-06-12T12:10:55.215Z,33.70
2018-06-12T12:13:23.446Z,34.60
2018-06-12T12:15:51.596Z,34.20
2018-06-12T12:18:19.894Z,33.80
2018-06-12T12:20:48.107Z,34.10
2018-06-12T12:23:16.284Z,34.70
2018-06-12T12:25:44.651Z,35.00
2018-06-12T12:28:12.806Z,33.80
2018-06-12T12:30:40.968Z,32.90
2018-06-12T12:33:09.213Z,32.00
2018-06-12T12:35:37.396Z,32.50
2018-06-12T12:38:06.099Z,32.30
2018-06-12T12:40:34.907Z,32.70
2018-06-12T12:43:03.507Z,32.10
2018-06-12T12:45:31.712Z,31.80
2018-06-12T12:48:00.017Z,32.10
2018-06-12T12:50:28.138Z,32.20
2018-06-12T12:52:56.479Z,31.90
2018-06-12T12:55:24.677Z,31.50
2018-06-12T12:57:53.053Z,31.80
2018-06-12T13:00:21.804Z,32.00
2018-06-12T13:02:49.953Z,32.30
2018-06-12T13:05:18.135Z,32.40
2018-06-12T13:07:46.301Z,32.60
2018-06-12T13:10:14.468Z,32.10
2018-06-12T13:12:42.600Z,32.60
2018-06-12T13:15:10.769Z,31.90
2018-06-12T13:17:38.902Z,31.80
2018-06-12T13:20:07.308Z,31.80
2018-06-12T13:22:35.599Z,31.70
2018-06-12T13:25:03.935Z,31.60
2018-06-12T13:27:32.081Z,31.10
2018-06-12T13:30:00.187Z,31.80
2018-06-12T13:32:28.375Z,31.50
2018-06-12T13:34:56.601Z,32.00
2018-06-12T13:37:24.825Z,32.00
2018-06-12T13:42:20.956Z,31.50
2018-06-12T13:44:49.133Z,31.50
2018-06-12T13:47:17.338Z,31.30
2018-06-12T13:49:45.556Z,31.70
2018-06-12T13:52:13.792Z,31.60
2018-06-12T13:54:42.167Z,31.80
2018-06-12T13:59:38.442Z,32.40
2018-06-12T14:02:06.684Z,31.90
2018-06-12T14:04:34.833Z,32.20
2018-06-12T14:07:03.056Z,33.10
2018-06-12T14:09:31.205Z,32.50
2018-06-12T14:11:59.418Z,32.70
2018-06-12T14:14:27.607Z,33.00
2018-06-12T14:16:55.793Z,33.30
2018-06-12T14:19:23.934Z,33.20
2018-06-12T14:21:52.148Z,33.70
2018-06-12T14:24:20.474Z,32.40
2018-06-12T14:26:48.695Z,33.50
2018-06-12T14:29:16.987Z,33.20
2018-06-12T14:31:45.170Z,33.00
2018-06-12T14:34:13.381Z,32.50
2018-06-12T14:36:41.604Z,33.10
2018-06-12T14:39:09.772Z,33.10
2018-06-12T14:41:38.378Z,32.40
2018-06-12T14:44:06.859Z,32.30
2018-06-12T14:46:35.133Z,32.10
2018-06-12T14:49:03.205Z,32.70
2018-06-12T14:51:31.745Z,33.20
2018-06-12T14:53:59.904Z,33.30
2018-06-12T14:56:28.063Z,33.00
2018-06-12T14:58:56.245Z,33.70
2018-06-12T15:01:24.392Z,34.10
2018-06-12T15:03:52.850Z,34.10
2018-06-12T15:06:21.096Z,34.30
2018-06-12T15:08:49.328Z,34.20
2018-06-12T15:11:17.555Z,34.30
2018-06-12T15:13:45.711Z,34.00
2018-06-12T15:16:13.890Z,34.60
2018-06-12T15:18:42.272Z,33.90
2018-06-12T15:21:10.504Z,33.80
2018-06-12T15:23:38.693Z,33.30
2018-06-12T15:26:06.828Z,33.90
2018-06-12T15:28:35.017Z,34.20
2018-06-12T15:31:03.284Z,33.60
2018-06-12T15:33:31.725Z,34.10
2018-06-12T15:35:59.983Z,33.70
2018-06-12T15:38:28.126Z,34.20
2018-06-12T15:40:56.340Z,34.10
2018-06-12T15:43:25.113Z,34.80
2018-06-12T15:45:53.994Z,34.70
2018-06-12T15:48:22.212Z,34.80
2018-06-12T15:50:50.407Z,34.70
2018-06-12T15:53:18.585Z,35.00
2018-06-12T15:55:46.762Z,35.50
2018-06-12T15:58:15.037Z,35.50
2018-06-12T16:00:43.330Z,35.50
2018-06-12T16:03:11.634Z,35.50
2018-06-12T16:05:39.790Z,35.80
2018-06-12T16:10:35.867Z,35.90
2018-06-12T16:13:04.048Z,35.70
2018-06-12T16:18:00.458Z,36.20
2018-06-12T16:20:35.250Z,35.80
2018-06-12T16:23:03.493Z,36.10
2018-06-12T16:25:35.600Z,36.40
2018-06-12T16:28:03.894Z,36.40
2018-06-12T16:30:32.054Z,36.60
2018-06-12T16:33:00.186Z,37.10
2018-06-12T16:35:28.452Z,36.80
2018-06-12T16:37:56.781Z,36.90
2018-06-12T16:40:25.126Z,37.70
2018-06-12T16:42:53.303Z,37.30
2018-06-12T16:45:21.493Z,37.30
2018-06-12T16:47:49.677Z,37.50
2018-06-12T16:50:18.145Z,37.60
2018-06-12T16:52:46.353Z,37.70
2018-06-12T16:55:14.526Z,37.60
2018-06-12T16:57:42.767Z,37.90
2018-06-12T17:00:10.946Z,38.10
2018-06-12T17:02:39.177Z,38.30
2018-06-12T17:05:07.442Z,38.30
2018-06-12T17:07:35.743Z,38.50
2018-06-12T17:10:03.966Z,38.70
2018-06-12T17:12:32.211Z,38.80
2018-06-12T17:15:00.596Z,38.80
2018-06-12T17:17:28.876Z,38.80
2018-06-12T17:19:57.015Z,38.80
2018-06-12T17:22:25.260Z,38.50
2018-06-12T17:24:53.388Z,38.30
2018-06-12T17:27:21.753Z,38.60
2018-06-12T17:29:49.923Z,38.90
2018-06-12T17:32:18.182Z,39.10
2018-06-12T17:34:46.361Z,39.30
2018-06-12T17:37:14.531Z,39.50
2018-06-12T17:39:42.733Z,39.50
2018-06-12T17:42:11.063Z,39.50
2018-06-12T17:44:39.460Z,39.30
2018-06-12T17:47:08.453Z,39.40
2018-06-12T17:49:36.846Z,39.50
2018-06-12T17:52:05.170Z,39.70
2018-06-12T17:54:33.329Z,39.60
2018-06-12T17:57:01.639Z,39.60
2018-06-12T17:59:29.824Z,39.70
2018-06-12T18:01:58.160Z,39.80
2018-06-12T18:04:26.328Z,39.80
2018-06-12T18:06:54.560Z,39.40
2018-06-12T18:09:22.898Z,39.70
2018-06-12T18:11:51.139Z,40.00
2018-06-12T18:14:19.400Z,40.10
2018-06-12T18:16:47.595Z,40.20
2018-06-12T18:19:15.838Z,40.20
2018-06-12T18:21:44.038Z,40.80
2018-06-12T18:24:12.352Z,40.30
2018-06-12T18:26:40.553Z,40.40
2018-06-12T18:29:08.781Z,40.80
2018-06-12T18:31:37.148Z,41.00
2018-06-12T18:34:06.031Z,41.20
2018-06-12T18:36:34.444Z,41.00
2018-06-12T18:39:02.927Z,41.80
2018-06-12T18:41:31.155Z,41.80
2018-06-12T18:43:59.464Z,41.30
2018-06-12T18:46:27.765Z,41.40
2018-06-12T18:48:55.982Z,41.60
2018-06-12T18:51:24.272Z,41.70
2018-06-12T18:53:52.661Z,41.80
2018-06-12T18:56:21.139Z,42.00
2018-06-12T18:58:49.561Z,42.00
2018-06-12T19:01:17.876Z,42.10
2018-06-12T19:03:46.126Z,42.30
2018-06-12T19:06:14.348Z,42.20
2018-06-12T19:08:42.581Z,42.50
2018-06-12T19:11:10.828Z,42.70
2018-06-12T19:13:39.132Z,42.70
2018-06-12T19:16:07.527Z,43.00
2018-06-12T19:18:37.667Z,43.30
2018-06-12T19:21:06.127Z,43.40
2018-06-12T19:23:34.523Z,43.50
2018-06-12T19:26:02.966Z,43.60
2018-06-12T19:28:31.234Z,43.60
2018-06-12T19:30:59.562Z,43.60
2018-06-12T19:33:27.921Z,43.70
2018-06-12T19:35:56.246Z,43.80
2018-06-12T19:38:24.587Z,44.60
2018-06-12T19:40:52.882Z,44.20
2018-06-12T19:43:21.265Z,44.20
2018-06-12T19:45:49.605Z,44.30
2018-06-12T19:48:17.943Z,44.40
2018-06-12T19:50:46.226Z,44.40
2018-06-12T19:53:14.711Z,44.50
2018-06-12T19:55:43.000Z,44.50
2018-06-12T19:58:11.265Z,44.60
2018-06-12T20:00:39.718Z,44.60
2018-06-12T20:03:08.072Z,44.50
2018-06-12T20:05:36.391Z,44.50
2018-06-12T20:08:04.700Z,44.70
2018-06-12T20:10:32.979Z,44.70
2018-06-12T20:13:02.470Z,44.70
2018-06-12T20:15:30.609Z,44.80
2018-06-12T20:18:00.791Z,44.70
2018-06-12T20:20:29.837Z,44.70
2018-06-12T20:22:58.154Z,44.80
2018-06-12T20:25:26.517Z,44.60
2018-06-12T20:27:54.826Z,44.50
2018-06-12T20:30:23.063Z,50.30
2018-06-12T20:32:51.239Z,47.70
2018-06-12T20:35:19.500Z,44.50
2018-06-12T20:37:47.800Z,43.50
2018-06-12T20:40:16.134Z,42.40
2018-06-12T20:42:44.425Z,41.80
2018-06-12T20:45:12.670Z,41.30
2018-06-12T20:47:40.975Z,41.00
2018-06-12T20:50:09.238Z,40.50
2018-06-12T20:55:05.603Z,40.20
2018-06-12T20:57:34.308Z,40.50
2018-06-12T21:00:02.547Z,40.90
2018-06-12T21:02:31.521Z,41.10
2018-06-12T21:04:59.774Z,41.60
2018-06-12T21:07:28.292Z,40.80
2018-06-12T21:09:56.628Z,40.90
2018-06-12T21:12:24.767Z,41.30
2018-06-12T21:14:53.155Z,41.00
2018-06-12T21:17:21.352Z,41.30
2018-06-12T21:19:49.681Z,40.90
2018-06-12T21:22:17.871Z,40.50
2018-06-12T21:24:46.150Z,40.60
2018-06-12T21:27:14.312Z,40.90
2018-06-12T21:29:42.503Z,41.10
2018-06-12T21:32:10.637Z,41.50
2018-06-12T21:34:38.817Z,41.90
2018-06-12T21:37:08.721Z,42.10
2018-06-12T21:39:37.007Z,42.30
2018-06-12T21:42:05.213Z,42.40
2018-06-12T21:44:33.555Z,42.60
2018-06-12T21:49:29.722Z,42.70
2018-06-12T21:54:25.989Z,43.10
2018-06-12T21:56:54.313Z,43.30
2018-06-12T21:59:22.484Z,44.00
2018-06-12T22:01:50.635Z,43.70
2018-06-12T22:04:18.875Z,43.90
2018-06-12T22:06:47.358Z,44.10
2018-06-12T22:09:15.602Z,44.20
2018-06-12T22:11:43.788Z,44.20
2018-06-12T22:14:12.016Z,44.80
2018-06-12T22:16:40.159Z,44.40
2018-06-12T22:19:08.296Z,44.60
2018-06-12T22:21:36.579Z,44.70
2018-06-12T22:24:04.812Z,44.80
2018-06-12T22:26:32.967Z,44.80
2018-06-12T22:29:01.277Z,44.80
2018-06-12T22:31:29.583Z,44.80
2018-06-12T22:33:57.765Z,44.80
2018-06-12T22:36:25.923Z,44.90
2018-06-12T22:38:54.243Z,45.00
2018-06-12T22:41:22.427Z,45.10
2018-06-12T22:43:51.528Z,45.20
2018-06-12T22:46:19.716Z,45.10
2018-06-12T22:48:47.840Z,45.10
2018-06-12T22:51:16.150Z,45.10
2018-06-12T22:56:12.715Z,45.10
2018-06-12T22:58:40.869Z,45.10
2018-06-12T23:01:09.093Z,45.20
2018-06-12T23:03:37.315Z,45.30
2018-06-12T23:06:05.476Z,45.20
2018-06-12T23:08:33.622Z,45.10
2018-06-12T23:13:29.944Z,45.30
2018-06-12T23:15:58.116Z,45.40
2018-06-12T23:18:26.792Z,45.40
2018-06-12T23:22:06.354Z,45.50
2018-06-12T23:24:34.556Z,45.50
2018-06-12T23:27:02.736Z,45.50
2018-06-12T23:29:31.023Z,45.60
2018-06-12T23:31:59.218Z,45.60
2018-06-12T23:34:27.519Z,45.60
2018-06-12T23:36:55.682Z,45.80
2018-06-12T23:39:23.977Z,45.90
2018-06-12T23:41:52.214Z,45.90
2018-06-12T23:44:20.568Z,45.90
2018-06-12T23:46:48.722Z,45.90
2018-06-12T23:49:16.834Z,46.00
2018-06-12T23:51:44.964Z,46.10
2018-06-12T23:54:13.116Z,46.20
2018-06-12T23:56:41.369Z,46.20
2018-06-12T23:59:09.463Z,46.30
